Time;durP1;ratioP1;P1;durP2;ratioP2;P2;SDS_P1;SDS_P2;PMS_P1;PMS_P2;Temp;Humidity;BMP_temperature;BMP_pressure;BME280_temperature;BME280_humidity;BME280_pressure;Samples;Min_cycle;Max_cycle;Signal;HPM_P1;HPM_P2
2022/06/05 00:01:43;;;;;;;;;;;;;;;29.45;23.77;101362.41;4439385;32;20017;-68
2022/06/05 00:06:56;;;;;;;;;;;;;;;29.80;23.78;101343.81;3953760;32;15723574;-69
2022/06/05 00:14:33;;;;;;;;;;;;;;;29.75;23.62;101330.19;3952426;32;15721582;-69
2022/06/05 00:16:58;;;;;;;;;;;;;;;29.57;23.70;101346.34;4436579;32;20009;-69
2022/06/05 00:19:24;;;;;;;;;;;;;;;29.88;23.34;101336.00;4436696;32;19948;-69
2022/06/05 00:21:50;;;;;;;;;;;;;;;29.69;23.55;101336.09;4435288;32;19954;-69
2022/06/05 00:24:15;;;;;;;;;;;;;;;29.55;23.69;101322.94;4432443;32;20322;-69
2022/06/05 00:34:47;;;;;;;;;;;;;;;29.84;23.25;101324.72;3952650;32;15728431;-69
2022/06/05 00:39:55;;;;;;;;;;;;;;;29.40;23.96;101319.00;3952813;32;15742571;-69
2022/06/05 00:42:23;;;;;;;;;;;;;;;29.40;23.96;101319.00;4430132;32;20042;-69
2022/06/05 00:47:25;;;;;;;;;;;;;;;29.20;24.50;101317.53;3952429;32;15723589;-69
2022/06/05 00:49:52;;;;;;;;;;;;;;;29.44;23.77;101314.44;4437418;32;20011;-69
2022/06/05 00:52:19;;;;;;;;;;;;;;;29.53;23.98;101314.00;4436739;32;19989;-69
2022/06/05 00:54:44;;;;;;;;;;;;;;;29.44;24.10;101307.84;4438453;32;19994;-69
2022/06/05 00:57:11;;;;;;;;;;;;;;;29.19;24.38;101303.59;4434536;32;19961;-69
2022/06/05 00:59:38;;;;;;;;;;;;;;;29.34;24.23;101303.84;4436803;32;19953;-69
2022/06/05 01:02:03;;;;;;;;;;;;;;;29.42;24.21;101293.91;4435679;32;20037;-69
2022/06/05 01:04:31;;;;;;;;;;;;;;;29.47;24.08;101287.22;4436321;32;20367;-69
2022/06/05 01:06:58;;;;;;;;;;;;;;;29.38;24.02;101292.69;4433729;32;19987;-69
2022/06/05 01:09:23;;;;;;;;;;;;;;;29.29;24.27;101287.34;4437104;32;20283;-70
2022/06/05 01:11:57;;;;;;;;;;;;;;;29.09;24.43;101279.28;4435511;32;20017;-69
2022/06/05 01:14:42;;;;;;;;;;;;;;;29.14;24.56;101270.47;4435281;32;19957;-69
2022/06/05 01:17:15;;;;;;;;;;;;;;;29.31;24.45;101273.06;4435354;32;20442;-69
2022/06/05 01:27:38;;;;;;;;;;;;;;;29.50;24.28;101268.69;3955061;32;15721504;-69
2022/06/05 01:30:14;;;;;;;;;;;;;;;29.50;24.28;101268.69;4430403;32;19997;-69
2022/06/05 01:35:23;;;;;;;;;;;;;;;29.78;23.96;101253.63;3952777;32;15721517;-69
2022/06/05 01:37:54;;;;;;;;;;;;;;;29.78;23.96;101253.63;4430665;32;20368;-69
2022/06/05 01:40:22;;;;;;;;;;;;;;;29.31;24.06;101250.66;4432508;32;19993;-69
2022/06/05 01:42:50;;;;;;;;;;;;;;;29.33;24.19;101247.19;4427324;32;19973;-69
2022/06/05 01:45:20;;;;;;;;;;;;;;;28.76;24.82;101249.56;4431551;32;19980;-69
2022/06/05 01:47:48;;;;;;;;;;;;;;;29.02;24.57;101245.91;4430097;32;19976;-69
2022/06/05 01:50:17;;;;;;;;;;;;;;;28.70;24.76;101253.87;4431094;32;20291;-69
2022/06/05 01:52:47;;;;;;;;;;;;;;;29.15;24.49;101248.06;4428960;32;20510;-69
2022/06/05 01:55:16;;;;;;;;;;;;;;;28.95;24.56;101240.78;4435091;32;20413;-69
2022/06/05 01:57:42;;;;;;;;;;;;;;;29.27;24.39;101246.53;4430704;32;20639;-69
2022/06/05 02:00:13;;;;;;;;;;;;;;;29.39;24.28;101245.72;4427335;32;19987;-69
2022/06/05 02:02:58;;;;;;;;;;;;;;;29.43;24.17;101249.09;4428967;32;20001;-69
2022/06/05 02:05:28;;;;;;;;;;;;;;;29.31;24.19;101262.25;4429890;32;20030;-69
2022/06/05 02:07:58;;;;;;;;;;;;;;;28.95;24.65;101258.16;4429818;32;19989;-69
2022/06/05 02:10:28;;;;;;;;;;;;;;;29.14;24.72;101263.91;4434587;32;20000;-68
2022/06/05 02:12:54;;;;;;;;;;;;;;;29.45;24.26;101260.13;4430844;32;20033;-68
2022/06/05 02:15:20;;;;;;;;;;;;;;;29.48;24.20;101253.97;4431837;32;20001;-68
2022/06/05 02:17:46;;;;;;;;;;;;;;;29.40;24.19;101263.91;4427312;32;19962;-68
2022/06/05 02:20:12;;;;;;;;;;;;;;;29.36;23.99;101261.34;4429963;32;19957;-68
2022/06/05 02:22:43;;;;;;;;;;;;;;;29.40;24.20;101270.50;4427480;32;20129;-68
2022/06/05 02:25:10;;;;;;;;;;;;;;;29.20;24.58;101267.50;4431201;32;19984;-68
2022/06/05 02:27:35;;;;;;;;;;;;;;;29.50;24.25;101262.12;4430549;32;20339;-68
2022/06/05 02:30:02;;;;;;;;;;;;;;;29.53;23.90;101269.69;4429830;32;19980;-68
2022/06/05 02:32:49;;;;;;;;;;;;;;;29.49;24.07;101263.47;4428739;32;20049;-68
2022/06/05 02:40:36;;;;;;;;;;;;;;;29.67;24.24;101271.28;3953249;32;15722609;-69
2022/06/05 02:45:55;;;;;;;;;;;;;;;29.65;24.16;101260.25;3953939;32;15728676;-69
2022/06/05 02:48:41;;;;;;;;;;;;;;;29.65;24.16;101260.25;4429178;32;19980;-69
2022/06/05 02:51:13;;;;;;;;;;;;;;;28.84;24.90;101256.25;4431654;32;19961;-69
2022/06/05 02:53:47;;;;;;;;;;;;;;;28.88;24.77;101247.25;4429345;32;20000;-69
2022/06/05 02:56:13;;;;;;;;;;;;;;;28.91;24.68;101244.03;4427923;32;20043;-69
2022/06/05 02:58:38;;;;;;;;;;;;;;;29.00;24.38;101246.47;4429674;32;20351;-69
2022/06/05 03:03:49;;;;;;;;;;;;;;;29.43;24.26;101254.88;4429714;32;19953;-69
2022/06/05 03:06:15;;;;;;;;;;;;;;;29.45;24.19;101246.38;4429195;32;19998;-69
2022/06/05 03:08:41;;;;;;;;;;;;;;;29.18;24.43;101255.66;4418070;32;20036;-69
2022/06/05 03:11:07;;;;;;;;;;;;;;;29.55;24.14;101261.22;4430179;32;20009;-69
2022/06/05 03:13:33;;;;;;;;;;;;;;;29.45;24.33;101255.09;4430953;32;19953;-69
2022/06/05 03:15:59;;;;;;;;;;;;;;;29.32;24.31;101254.34;4430220;32;21140;-68
2022/06/05 03:18:25;;;;;;;;;;;;;;;29.60;24.04;101258.19;4430812;32;20002;-68
2022/06/05 03:20:56;;;;;;;;;;;;;;;29.56;24.14;101249.06;4430846;32;19960;-69
2022/06/05 03:23:22;;;;;;;;;;;;;;;29.25;24.32;101243.37;4430012;32;20013;-70
2022/06/05 03:25:47;;;;;;;;;;;;;;;29.42;24.25;101238.03;4429264;32;19971;-69
2022/06/05 03:28:13;;;;;;;;;;;;;;;29.04;24.72;101240.37;4430545;32;20004;-69
2022/06/05 03:30:40;;;;;;;;;;;;;;;29.03;24.71;101239.56;4433007;32;19953;-69
2022/06/05 03:33:05;;;;;;;;;;;;;;;29.24;24.17;101225.22;4428369;32;20350;-70
2022/06/05 03:35:34;;;;;;;;;;;;;;;29.47;24.15;101225.53;4432350;32;20655;-68
2022/06/05 03:38:00;;;;;;;;;;;;;;;28.93;24.72;101221.03;4429884;32;19953;-68
2022/06/05 03:40:26;;;;;;;;;;;;;;;29.36;24.46;101217.06;4432024;32;20516;-68
2022/06/05 03:42:51;;;;;;;;;;;;;;;29.30;24.23;101225.09;4428710;32;20005;-68
2022/06/05 03:45:17;;;;;;;;;;;;;;;28.73;25.25;101212.22;4432790;32;19969;-68
2022/06/05 03:47:43;;;;;;;;;;;;;;;29.19;24.56;101210.81;4431241;32;20013;-68
2022/06/05 03:50:09;;;;;;;;;;;;;;;29.45;24.19;101207.94;4428633;32;19950;-68
2022/06/05 03:52:35;;;;;;;;;;;;;;;29.30;24.22;101201.91;4430505;32;19953;-68
2022/06/05 03:55:00;;;;;;;;;;;;;;;29.49;24.03;101202.56;4430032;32;19988;-68
2022/06/05 03:57:26;;;;;;;;;;;;;;;29.61;23.93;101195.97;4419809;32;20387;-68
2022/06/05 03:59:51;;;;;;;;;;;;;;;29.57;23.94;101200.53;4421108;32;19957;-68
2022/06/05 04:02:17;;;;;;;;;;;;;;;29.37;24.29;101189.63;4419470;32;19965;-68
2022/06/05 04:04:42;;;;;;;;;;;;;;;29.41;24.30;101185.06;4418265;32;19965;-68
2022/06/05 04:07:08;;;;;;;;;;;;;;;29.60;23.66;101179.87;4417387;32;20202;-69
2022/06/05 04:09:33;;;;;;;;;;;;;;;29.37;24.24;101178.03;4418800;32;19970;-69
2022/06/05 04:11:59;;;;;;;;;;;;;;;29.40;24.23;101186.41;4425514;32;19983;-69
2022/06/05 04:14:25;;;;;;;;;;;;;;;29.23;24.36;101202.59;4420083;32;19954;-69
2022/06/05 04:16:50;;;;;;;;;;;;;;;29.00;24.55;101193.53;4419552;32;20128;-69
2022/06/05 04:19:17;;;;;;;;;;;;;;;28.98;24.65;101170.91;4421455;32;19953;-69
2022/06/05 04:21:44;;;;;;;;;;;;;;;29.13;24.43;101192.75;4421178;32;20321;-69
2022/06/05 04:24:11;;;;;;;;;;;;;;;29.50;24.14;101186.72;4420591;32;20019;-69
2022/06/05 04:26:40;;;;;;;;;;;;;;;29.73;23.86;101179.09;4411860;32;20431;-69
2022/06/05 04:29:05;;;;;;;;;;;;;;;29.38;23.98;101171.66;4420769;32;19949;-69
2022/06/05 04:31:32;;;;;;;;;;;;;;;29.41;24.06;101185.06;4421633;32;19976;-69
2022/06/05 04:33:59;;;;;;;;;;;;;;;29.15;24.39;101182.19;4420068;32;20015;-69
2022/06/05 04:36:25;;;;;;;;;;;;;;;29.40;24.21;101179.81;4422171;32;19964;-69
2022/06/05 04:38:51;;;;;;;;;;;;;;;29.49;24.17;101179.34;4420739;32;20340;-69
2022/06/05 04:41:18;;;;;;;;;;;;;;;28.88;24.75;101169.78;4419788;32;19961;-69
2022/06/05 04:43:44;;;;;;;;;;;;;;;28.71;24.91;101163.53;4419347;32;19953;-69
2022/06/05 04:46:09;;;;;;;;;;;;;;;29.16;24.56;101172.16;4420994;32;19949;-69
2022/06/05 04:48:35;;;;;;;;;;;;;;;28.80;24.93;101166.00;4418132;32;20017;-69
2022/06/05 04:51:04;;;;;;;;;;;;;;;29.25;24.54;101154.31;4418238;32;19965;-69
2022/06/05 04:53:30;;;;;;;;;;;;;;;29.60;24.25;101158.81;4418582;32;20059;-69
2022/06/05 04:55:55;;;;;;;;;;;;;;;28.47;25.13;101160.03;4421375;32;19987;-69
2022/06/05 04:58:22;;;;;;;;;;;;;;;29.06;24.63;101155.75;4408804;32;20041;-69
2022/06/05 05:00:48;;;;;;;;;;;;;;;29.31;24.28;101169.47;4417611;32;19965;-69
2022/06/05 05:03:14;;;;;;;;;;;;;;;29.44;24.17;101172.34;4417648;32;20056;-69
2022/06/05 05:05:40;;;;;;;;;;;;;;;28.63;25.06;101170.53;4416805;32;21267;-69
2022/06/05 05:08:06;;;;;;;;;;;;;;;28.87;24.84;101165.31;4416192;32;19969;-69
2022/06/05 05:10:32;;;;;;;;;;;;;;;28.41;25.27;101165.13;4418684;32;20039;-69
2022/06/05 05:12:58;;;;;;;;;;;;;;;29.11;24.59;101157.78;4419304;32;19973;-69
2022/06/05 05:15:23;;;;;;;;;;;;;;;28.64;25.21;101158.41;4420775;32;20018;-69
2022/06/05 05:17:50;;;;;;;;;;;;;;;28.23;25.59;101155.19;4417238;32;19977;-69
2022/06/05 05:20:16;;;;;;;;;;;;;;;29.16;24.64;101156.88;4417867;32;20008;-69
2022/06/05 05:22:41;;;;;;;;;;;;;;;29.19;24.46;101150.75;4419034;32;19985;-69
2022/06/05 05:25:10;;;;;;;;;;;;;;;28.95;24.85;101148.03;4418365;32;19953;-69
2022/06/05 05:27:36;;;;;;;;;;;;;;;29.12;24.75;101151.41;4418607;32;20611;-69
2022/06/05 05:30:02;;;;;;;;;;;;;;;29.57;24.42;101148.34;4414573;32;19983;-69
2022/06/05 05:32:29;;;;;;;;;;;;;;;29.72;24.29;101139.81;4419549;32;19976;-69
2022/06/05 05:34:55;;;;;;;;;;;;;;;29.60;24.71;101142.16;4417910;32;19962;-69
2022/06/05 05:37:21;;;;;;;;;;;;;;;29.15;25.56;101138.72;4415474;32;19976;-69
2022/06/05 05:42:32;;;;;;;;;;;;;;;29.46;25.31;101140.66;4416622;32;20020;-69
2022/06/05 05:44:58;;;;;;;;;;;;;;;29.14;25.77;101136.38;4416797;32;19954;-69
2022/06/05 05:47:26;;;;;;;;;;;;;;;28.88;25.89;101137.91;4414367;32;20320;-69
2022/06/05 05:49:53;;;;;;;;;;;;;;;29.25;25.72;101139.03;4419920;32;19992;-69
2022/06/05 05:52:18;;;;;;;;;;;;;;;29.13;25.73;101141.38;4421703;32;19994;-69
2022/06/05 05:54:44;;;;;;;;;;;;;;;28.76;26.14;101142.37;4416714;32;20379;-69
2022/06/05 05:57:09;;;;;;;;;;;;;;;29.07;25.79;101143.62;4415479;32;20280;-69
2022/06/05 05:59:35;;;;;;;;;;;;;;;28.87;26.14;101147.16;4422706;32;20000;-69
2022/06/05 06:02:03;;;;;;;;;;;;;;;28.77;25.93;101146.81;4419611;32;19953;-69
2022/06/05 06:04:28;;;;;;;;;;;;;;;29.14;25.86;101136.38;4418290;32;19991;-69
2022/06/05 06:06:54;;;;;;;;;;;;;;;29.35;25.62;101140.91;4423590;32;19958;-69
2022/06/05 06:09:20;;;;;;;;;;;;;;;28.87;26.29;101141.38;4418487;32;19985;-69
2022/06/05 06:11:46;;;;;;;;;;;;;;;28.90;26.08;101135.22;4419261;32;20003;-69
2022/06/05 06:14:11;;;;;;;;;;;;;;;28.80;26.37;101137.00;4413567;32;19972;-69
2022/06/05 06:16:37;;;;;;;;;;;;;;;28.76;26.52;101144.47;4418784;32;20374;-68
2022/06/05 06:19:03;;;;;;;;;;;;;;;28.87;26.41;101147.16;4418259;32;19999;-68
2022/06/05 06:21:29;;;;;;;;;;;;;;;28.60;26.76;101142.69;4418040;32;19958;-68
2022/06/05 06:23:54;;;;;;;;;;;;;;;28.32;27.87;101148.19;4417134;32;20384;-68
2022/06/05 06:26:20;;;;;;;;;;;;;;;28.79;27.19;101147.06;4415135;32;19984;-68
2022/06/05 06:28:46;;;;;;;;;;;;;;;28.46;27.94;101141.09;4416676;32;19954;-68
2022/06/05 06:31:13;;;;;;;;;;;;;;;28.77;27.78;101151.81;4416825;32;20363;-68
2022/06/05 06:33:39;;;;;;;;;;;;;;;28.89;27.96;101148.16;4416520;32;20000;-68
2022/06/05 06:36:06;;;;;;;;;;;;;;;28.50;28.07;101135.78;4418064;32;19981;-68
2022/06/05 06:38:33;;;;;;;;;;;;;;;28.19;28.91;101146.00;4414775;32;19980;-67
2022/06/05 06:41:00;;;;;;;;;;;;;;;28.23;28.58;101137.00;4417439;32;20338;-67
2022/06/05 06:43:26;;;;;;;;;;;;;;;28.35;28.72;101142.03;4415766;32;19966;-68
2022/06/05 06:45:51;;;;;;;;;;;;;;;28.32;28.88;101137.34;4415900;32;19962;-68
2022/06/05 06:48:17;;;;;;;;;;;;;;;28.20;28.73;101136.03;4416376;32;19962;-68
2022/06/05 06:50:43;;;;;;;;;;;;;;;28.08;28.96;101134.63;4418565;32;20052;-68
2022/06/05 06:53:08;;;;;;;;;;;;;;;27.73;29.40;101134.91;4417404;32;20280;-67
2022/06/05 06:55:36;;;;;;;;;;;;;;;27.82;29.70;101122.94;4418190;32;20054;-68
2022/06/05 06:58:02;;;;;;;;;;;;;;;28.07;29.34;101135.19;4414005;32;19993;-68
2022/06/05 07:00:28;;;;;;;;;;;;;;;27.85;29.62;101129.75;4416430;32;20290;-68
2022/06/05 07:02:54;;;;;;;;;;;;;;;28.06;29.09;101124.94;4415719;32;20769;-68
2022/06/05 07:05:19;;;;;;;;;;;;;;;28.21;29.32;101119.41;4416537;32;19942;-68
2022/06/05 07:07:44;;;;;;;;;;;;;;;28.02;29.27;101121.59;4415192;32;19988;-68
2022/06/05 07:10:10;;;;;;;;;;;;;;;28.12;29.66;101122.72;4418977;32;20021;-69
2022/06/05 07:12:36;;;;;;;;;;;;;;;27.81;30.01;101132.16;4415113;32;19991;-69
2022/06/05 07:15:04;;;;;;;;;;;;;;;28.12;29.53;101128.50;4415644;32;19965;-69
2022/06/05 07:17:30;;;;;;;;;;;;;;;28.31;29.65;101118.44;4420074;32;20282;-70
2022/06/05 07:19:56;;;;;;;;;;;;;;;28.22;29.71;101118.09;4421771;32;19968;-70
2022/06/05 07:22:22;;;;;;;;;;;;;;;28.09;29.78;101126.72;4415057;32;19949;-70
2022/06/05 07:24:48;;;;;;;;;;;;;;;28.13;29.38;101116.38;4420471;32;20001;-70
2022/06/05 07:27:14;;;;;;;;;;;;;;;28.43;29.77;101119.78;4419047;32;20010;-69
2022/06/05 07:29:39;;;;;;;;;;;;;;;28.64;29.34;101114.16;4415234;32;19985;-68
2022/06/05 07:32:05;;;;;;;;;;;;;;;28.61;29.53;101124.75;4420004;32;20327;-68
2022/06/05 07:34:30;;;;;;;;;;;;;;;28.47;28.63;101117.38;4419186;32;20019;-69
2022/06/05 07:36:57;;;;;;;;;;;;;;;28.65;29.22;101110.72;4417828;32;19989;-69
2022/06/05 07:39:22;;;;;;;;;;;;;;;28.31;29.64;101109.75;4422668;32;20041;-69
2022/06/05 07:41:48;;;;;;;;;;;;;;;28.16;29.69;101086.34;4414601;32;20009;-67
2022/06/05 07:44:15;;;;;;;;;;;;;;;28.27;29.68;101086.16;4420620;32;20075;-69
2022/06/05 07:46:41;;;;;;;;;;;;;;;28.43;29.88;101072.69;4417429;32;20008;-69
2022/06/05 07:49:07;;;;;;;;;;;;;;;28.21;29.47;101070.22;4417161;32;20354;-69
2022/06/05 07:54:28;;;;;;;;;;;;;;;28.01;30.47;101065.81;4420026;32;19996;-69
2022/06/05 07:56:56;;;;;;;;;;;;;;;28.21;30.10;101065.22;4416207;32;19971;-68
2022/06/05 07:59:23;;;;;;;;;;;;;;;28.36;30.08;101062.56;4421115;32;20467;-69
2022/06/05 08:01:49;;;;;;;;;;;;;;;28.20;29.89;101068.66;4420733;32;19979;-69
2022/06/05 08:04:14;;;;;;;;;;;;;;;28.78;29.77;101075.19;4419205;32;19961;-69
2022/06/05 08:06:41;;;;;;;;;;;;;;;28.29;29.72;101063.19;4415536;32;20004;-69
2022/06/05 08:09:07;;;;;;;;;;;;;;;28.46;29.37;101063.69;4417094;32;19958;-68
2022/06/05 08:11:32;;;;;;;;;;;;;;;28.59;29.47;101054.25;4418066;32;20359;-68
2022/06/05 08:13:59;;;;;;;;;;;;;;;28.60;29.15;101052.91;4417900;32;20036;-68
2022/06/05 08:16:25;;;;;;;;;;;;;;;28.42;29.83;101045.88;4417611;32;19966;-69
2022/06/05 08:18:52;;;;;;;;;;;;;;;28.16;29.83;101053.75;4420211;32;19999;-69
2022/06/05 08:21:18;;;;;;;;;;;;;;;28.51;29.68;101047.56;4422973;32;19961;-69
2022/06/05 08:23:44;;;;;;;;;;;;;;;28.18;29.88;101059.75;4418653;32;19957;-69
2022/06/05 08:26:10;;;;;;;;;;;;;;;27.76;30.06;101064.37;4415839;32;19975;-68
2022/06/05 08:28:36;;;;;;;;;;;;;;;28.24;30.13;101064.09;4419949;32;19949;-68
2022/06/05 08:31:03;;;;;;;;;;;;;;;28.06;30.28;101059.16;4418032;32;20311;-68
2022/06/05 08:33:29;;;;;;;;;;;;;;;28.49;30.17;101051.00;4420444;32;20417;-68
2022/06/05 08:35:54;;;;;;;;;;;;;;;28.41;30.20;101055.88;4416547;32;20013;-69
2022/06/05 08:49:14;;;;;;;;;;;;;;;29.50;29.03;101074.37;3959416;31;15720887;-68
2022/06/05 08:51:47;;;;;;;;;;;;;;;29.50;29.03;101074.37;4438680;32;19972;-68
2022/06/05 08:54:15;;;;;;;;;;;;;;;29.09;29.27;101059.00;4439787;32;19989;-68
2022/06/05 08:56:43;;;;;;;;;;;;;;;29.47;28.90;101066.03;4438795;32;19984;-68
2022/06/05 09:04:38;;;;;;;;;;;;;;;30.29;27.98;101077.72;3951474;32;15722384;-68
2022/06/05 09:07:06;;;;;;;;;;;;;;;30.29;27.98;101077.72;4429035;32;20328;-68
2022/06/05 09:09:39;;;;;;;;;;;;;;;30.01;28.08;101072.62;4430334;32;20000;-68
2022/06/05 09:12:13;;;;;;;;;;;;;;;29.42;27.80;101069.84;4429326;32;20138;-68
2022/06/05 09:17:18;;;;;;;;;;;;;;;29.83;28.21;101070.72;3954014;32;15723434;-69
2022/06/05 09:19:43;;;;;;;;;;;;;;;29.83;28.21;101070.72;4429696;32;19957;-68
2022/06/05 09:24:58;;;;;;;;;;;;;;;29.51;28.73;101070.13;3951866;32;15727606;-68
2022/06/05 09:30:04;;;;;;;;;;;;;;;30.24;27.91;101056.19;3954998;32;15722563;-68
2022/06/05 09:37:52;;;;;;;;;;;;;;;30.27;28.03;101055.06;3968134;31;15716253;-68
2022/06/05 09:40:24;;;;;;;;;;;;;;;29.87;28.07;101044.22;4432553;32;19950;-68
2022/06/05 09:42:58;;;;;;;;;;;;;;;30.53;27.80;101039.56;4433363;32;19957;-68
2022/06/05 09:45:29;;;;;;;;;;;;;;;30.38;27.45;101040.25;4433592;32;20366;-68
2022/06/05 09:48:15;;;;;;;;;;;;;;;29.55;28.20;101050.28;4436729;32;19967;-69
2022/06/05 09:50:40;;;;;;;;;;;;;;;30.37;27.18;101044.47;4429574;32;19994;-69
2022/06/05 09:53:11;;;;;;;;;;;;;;;30.42;27.54;101046.44;4433829;32;19966;-69
2022/06/05 09:55:53;;;;;;;;;;;;;;;30.12;27.16;101043.28;4434913;32;19988;-69
2022/06/05 10:01:21;;;;;;;;;;;;;;;31.40;26.32;101041.16;3954726;32;15725565;-69
2022/06/05 10:03:48;;;;;;;;;;;;;;;31.40;26.32;101041.16;4436462;32;20435;-69
2022/06/05 10:08:55;;;;;;;;;;;;;;;31.05;26.88;101044.91;3969145;31;15723024;-68
2022/06/05 10:11:23;;;;;;;;;;;;;;;31.05;26.88;101044.91;4453790;32;20000;-68
2022/06/05 10:13:59;;;;;;;;;;;;;;;30.77;26.48;101036.25;4453703;32;19970;-68
2022/06/05 10:19:20;;;;;;;;;;;;;;;30.86;26.39;101041.50;3953594;32;15724496;-68
2022/06/05 10:21:50;;;;;;;;;;;;;;;30.86;26.39;101041.50;4436225;32;20524;-69
2022/06/05 10:24:35;;;;;;;;;;;;;;;30.64;25.92;101039.22;4431233;32;20039;-68
2022/06/05 10:27:02;;;;;;;;;;;;;;;30.33;26.76;101038.25;4430190;32;20372;-68
2022/06/05 10:29:38;;;;;;;;;;;;;;;30.69;26.62;101041.19;4432592;32;19997;-68
2022/06/05 10:32:23;;;;;;;;;;;;;;;30.77;26.82;101047.88;4429509;32;20016;-69
2022/06/05 10:35:09;;;;;;;;;;;;;;;30.65;26.69;101040.78;4432467;32;20299;-69
2022/06/05 10:37:55;;;;;;;;;;;;;;;30.57;26.70;101037.06;4428958;32;20042;-68
2022/06/05 10:40:25;;;;;;;;;;;;;;;30.76;26.85;101032.56;4432765;32;20001;-68
2022/06/05 10:42:54;;;;;;;;;;;;;;;30.91;26.89;101033.97;4432581;32;19965;-68
2022/06/05 10:50:37;;;;;;;;;;;;;;;30.98;27.46;101036.91;3954533;32;15723510;-69
2022/06/05 10:53:12;;;;;;;;;;;;;;;30.98;27.46;101036.91;4435595;32;19961;-68
2022/06/05 10:55:45;;;;;;;;;;;;;;;30.13;28.14;101035.38;4436457;32;20302;-68
2022/06/05 10:58:30;;;;;;;;;;;;;;;30.40;27.40;101042.56;4438022;32;19953;-68
2022/06/05 11:01:15;;;;;;;;;;;;;;;30.46;27.81;101029.44;4435660;32;20009;-68
2022/06/05 11:03:52;;;;;;;;;;;;;;;30.37;28.29;101026.28;4436753;32;19961;-68
2022/06/05 11:22:10;;;;;;;;;;;;;;;30.79;27.25;101005.25;3953240;32;15724676;-68
2022/06/05 11:24:43;;;;;;;;;;;;;;;30.79;27.25;101005.25;4438100;32;19953;-68
2022/06/05 11:29:53;;;;;;;;;;;;;;;30.68;27.69;100981.53;3954580;32;15723597;-70
2022/06/05 11:32:31;;;;;;;;;;;;;;;30.68;27.69;100981.53;4436724;32;19996;-69
2022/06/05 11:35:02;;;;;;;;;;;;;;;30.25;27.66;100984.38;4437418;32;20082;-69
2022/06/05 11:37:41;;;;;;;;;;;;;;;29.93;28.53;100986.81;4434347;32;20302;-68
2022/06/05 11:45:32;;;;;;;;;;;;;;;30.97;26.99;100977.97;3951954;32;15729607;-68
2022/06/05 11:48:02;;;;;;;;;;;;;;;31.00;26.99;100981.09;4431442;32;20004;-68
2022/06/05 11:50:32;;;;;;;;;;;;;;;30.22;28.34;100971.00;4430425;32;19961;-68
2022/06/05 11:53:18;;;;;;;;;;;;;;;30.62;27.88;100972.22;4427420;32;20431;-68
2022/06/05 11:56:04;;;;;;;;;;;;;;;30.78;27.59;100977.56;4416432;32;20380;-69
2022/06/05 11:58:50;;;;;;;;;;;;;;;30.77;27.77;100967.25;4429088;32;20002;-69
2022/06/05 12:01:17;;;;;;;;;;;;;;;30.65;27.85;100966.00;4429516;32;19950;-69
2022/06/05 12:03:49;;;;;;;;;;;;;;;30.59;28.05;100962.50;4429895;32;19979;-69
2022/06/05 12:06:37;;;;;;;;;;;;;;;30.82;27.80;100959.72;4431773;32;19992;-69
2022/06/05 12:09:05;;;;;;;;;;;;;;;30.99;27.20;100962.13;4430511;32;19962;-69
2022/06/05 12:11:36;;;;;;;;;;;;;;;31.00;27.56;100954.94;4432631;32;20000;-68
2022/06/05 12:14:11;;;;;;;;;;;;;;;31.19;27.63;100944.53;4432860;32;20371;-69
2022/06/05 12:19:28;;;;;;;;;;;;;;;31.68;26.81;100955.84;3952867;32;15723551;-69
2022/06/05 12:21:59;;;;;;;;;;;;;;;31.68;26.81;100955.84;4435764;32;19957;-69
2022/06/05 12:24:30;;;;;;;;;;;;;;;31.17;27.27;100952.28;4437331;32;20330;-69
2022/06/05 12:27:00;;;;;;;;;;;;;;;30.68;27.93;100946.69;4434514;32;20027;-69
2022/06/05 12:32:07;;;;;;;;;;;;;;;31.05;27.74;100951.09;3952995;32;15723415;-69
2022/06/05 12:34:52;;;;;;;;;;;;;;;31.05;27.74;100951.09;4433951;32;19996;-69
2022/06/05 12:37:22;;;;;;;;;;;;;;;30.33;28.29;100941.63;4433841;32;20357;-69
2022/06/05 12:39:49;;;;;;;;;;;;;;;30.37;27.76;100942.81;4437425;32;19983;-69
2022/06/05 12:44:53;;;;;;;;;;;;;;;31.45;27.81;100934.72;3955117;32;15721748;-69
2022/06/05 12:47:38;;;;;;;;;;;;;;;31.45;27.81;100934.72;4431986;32;20176;-69
2022/06/05 12:50:15;;;;;;;;;;;;;;;30.90;27.66;100934.38;4430987;32;19957;-69
2022/06/05 13:00:49;;;;;;;;;;;;;;;31.09;27.58;100923.19;3967712;31;15718438;-69
2022/06/05 13:06:01;;;;;;;;;;;;;;;30.99;27.67;100921.41;3968301;31;15717106;-68
2022/06/05 13:08:38;;;;;;;;;;;;;;;30.99;27.67;100921.41;4448875;32;19960;-68
2022/06/05 13:16:44;;;;;;;;;;;;;;;31.83;26.77;100906.41;3953294;32;15721360;-69
2022/06/05 13:19:29;;;;;;;;;;;;;;;31.83;26.77;100906.41;4432437;32;20471;-69
2022/06/05 13:22:08;;;;;;;;;;;;;;;31.51;26.95;100909.13;4435446;32;20036;-70
2022/06/05 13:24:44;;;;;;;;;;;;;;;31.90;26.34;100917.28;4435472;32;19976;-70
2022/06/05 13:27:29;;;;;;;;;;;;;;;31.81;26.54;100920.75;4438157;32;19957;-70
2022/06/05 13:30:14;;;;;;;;;;;;;;;31.78;26.87;100924.81;4434724;32;19968;-70
2022/06/05 13:38:27;;;;;;;;;;;;;;;31.61;27.19;100919.59;3961640;31;15718968;-70
2022/06/05 13:41:12;;;;;;;;;;;;;;;31.61;27.19;100919.59;4435514;32;19996;-70
2022/06/05 13:43:40;;;;;;;;;;;;;;;30.55;27.97;100891.59;4436980;32;20169;-70
2022/06/05 13:49:01;;;;;;;;;;;;;;;31.27;28.33;100904.63;3952186;31;15716735;-71
2022/06/05 13:51:29;;;;;;;;;;;;;;;31.27;28.33;100904.63;4421562;32;19961;-71
2022/06/05 13:54:00;;;;;;;;;;;;;;;30.29;28.33;100897.69;4420975;32;20025;-71
2022/06/05 13:56:30;;;;;;;;;;;;;;;30.46;28.47;100906.66;4421627;32;19956;-71
2022/06/05 13:58:59;;;;;;;;;;;;;;;30.66;27.83;100892.03;4420621;32;20001;-71
2022/06/05 14:01:31;;;;;;;;;;;;;;;30.03;29.09;100892.84;4422479;32;19949;-71
2022/06/05 14:03:58;;;;;;;;;;;;;;;30.23;28.68;100903.66;4417125;32;19953;-71
2022/06/05 14:06:28;;;;;;;;;;;;;;;30.01;29.20;100891.88;4418379;32;19997;-71
2022/06/05 14:08:56;;;;;;;;;;;;;;;30.75;28.77;100906.06;4421416;32;19950;-71
2022/06/05 14:11:29;;;;;;;;;;;;;;;30.41;28.45;100893.88;4420079;32;19989;-71
2022/06/05 14:13:54;;;;;;;;;;;;;;;29.73;28.91;100894.78;4417399;32;19966;-71
2022/06/05 14:16:26;;;;;;;;;;;;;;;29.80;29.00;100891.94;4422034;32;20306;-70
2022/06/05 14:19:01;;;;;;;;;;;;;;;30.52;28.68;100886.94;4421940;32;19989;-70
2022/06/05 14:21:31;;;;;;;;;;;;;;;30.58;28.96;100887.53;4424831;32;20003;-71
2022/06/05 14:23:57;;;;;;;;;;;;;;;30.46;28.86;100884.22;4417565;32;19993;-71
2022/06/05 14:26:40;;;;;;;;;;;;;;;30.40;28.94;100888.66;4420613;32;19958;-71
2022/06/05 14:29:08;;;;;;;;;;;;;;;30.84;28.01;100893.09;4419259;32;20120;-71
2022/06/05 14:31:36;;;;;;;;;;;;;;;30.16;29.05;100889.81;4421046;32;19953;-70
2022/06/05 14:34:03;;;;;;;;;;;;;;;29.99;28.85;100889.56;4417370;32;19949;-69
2022/06/05 14:36:45;;;;;;;;;;;;;;;29.99;29.02;100883.75;4422081;32;20519;-70
2022/06/05 14:42:02;;;;;;;;;;;;;;;30.61;28.89;100878.47;3952345;32;15721573;-71
2022/06/05 14:44:34;;;;;;;;;;;;;;;30.61;28.89;100878.47;4435351;32;19992;-71
2022/06/05 14:47:05;;;;;;;;;;;;;;;30.35;29.14;100893.28;4437449;32;19969;-71
2022/06/05 14:49:40;;;;;;;;;;;;;;;30.57;28.93;100894.72;4425206;32;19961;-71
2022/06/05 14:57:54;;;;;;;;;;;;;;;31.54;27.67;100893.41;3953746;32;15722499;-69
2022/06/05 15:00:13;;;;;;;;;;;;;;;31.54;27.67;100893.41;4437173;32;20001;-68
2022/06/05 15:02:45;;;;;;;;;;;;;;;31.44;27.90;100889.53;4431387;32;20694;-69
2022/06/05 15:05:14;;;;;;;;;;;;;;;31.25;27.84;100892.78;4428428;32;20065;-69
2022/06/05 15:07:47;;;;;;;;;;;;;;;31.60;27.59;100891.84;4431950;32;19994;-69
2022/06/05 15:12:50;;;;;;;;;;;;;;;31.62;27.29;100888.34;3954125;32;15724555;-69
2022/06/05 15:15:18;;;;;;;;;;;;;;;31.62;27.29;100888.34;4427007;32;19945;-68
2022/06/05 15:17:46;;;;;;;;;;;;;;;31.45;27.69;100885.25;4429963;32;19992;-68
2022/06/05 15:20:16;;;;;;;;;;;;;;;31.47;27.78;100888.37;4429206;32;20382;-68
2022/06/05 15:23:01;;;;;;;;;;;;;;;30.71;28.03;100878.69;4429941;32;19966;-68